Time;durP1;ratioP1;P1;durP2;ratioP2;P2;SDS_P1;SDS_P2;PMS_P1;PMS_P2;Temp;Humidity;BMP_temperature;BMP_pressure;BME280_temperature;BME280_humidity;BME280_pressure;Samples;Min_cycle;Max_cycle;Signal;HPM_P1;HPM_P2
2021/12/03 00:00:11;;;;;;;25.83;10.13;;;10.30;79.90;;;;;;5093082;28;20032;-68
2021/12/03 00:02:37;;;;;;;24.23;9.90;;;10.30;79.90;;;;;;5092667;28;20110;-73
2021/12/03 00:05:03;;;;;;;26.20;11.23;;;10.20;79.80;;;;;;5093233;28;20070;-72
2021/12/03 00:07:29;;;;;;;19.58;8.13;;;10.20;80.10;;;;;;5093372;28;20029;-72
2021/12/03 00:09:55;;;;;;;20.77;8.45;;;10.10;80.10;;;;;;5093714;28;20043;-71
2021/12/03 00:12:21;;;;;;;19.67;7.60;;;10.20;80.20;;;;;;5092990;28;20036;-72
2021/12/03 00:14:46;;;;;;;17.00;7.28;;;10.10;80.20;;;;;;5093400;28;20016;-68
2021/12/03 00:17:12;;;;;;;15.18;6.93;;;10.10;80.10;;;;;;5092467;28;20032;-73
2021/12/03 00:19:38;;;;;;;12.02;5.78;;;10.10;80.10;;;;;;5093314;28;20473;-73
2021/12/03 00:22:03;;;;;;;12.23;6.07;;;10.10;80.10;;;;;;5092786;28;20081;-73
2021/12/03 00:24:29;;;;;;;12.73;6.38;;;10.10;80.20;;;;;;5093150;28;20185;-73
2021/12/03 00:26:55;;;;;;;13.48;6.10;;;10.10;80.30;;;;;;5093021;28;20028;-72
2021/12/03 00:29:20;;;;;;;14.18;6.32;;;10.00;80.10;;;;;;5093031;28;20541;-72
2021/12/03 00:31:46;;;;;;;10.23;5.47;;;10.00;80.40;;;;;;5092572;28;20024;-73
2021/12/03 00:34:11;;;;;;;15.93;5.82;;;10.00;80.30;;;;;;5093044;28;20469;-67
2021/12/03 00:36:37;;;;;;;11.88;5.43;;;10.00;80.30;;;;;;5093023;28;20024;-73
2021/12/03 00:39:04;;;;;;;12.05;5.45;;;10.00;80.20;;;;;;5092901;28;20021;-73
2021/12/03 00:41:34;;;;;;;7.38;4.28;;;10.00;80.20;;;;;;5092795;28;20073;-72
2021/12/03 00:43:59;;;;;;;10.65;5.55;;;10.00;80.20;;;;;;5092912;28;20401;-73
2021/12/03 00:46:25;;;;;;;9.90;4.35;;;9.90;80.30;;;;;;5092476;28;20105;-73
2021/12/03 00:48:52;;;;;;;8.32;4.78;;;10.00;81.00;;;;;;5092995;28;20032;-72
2021/12/03 00:51:21;;;;;;;13.02;5.35;;;9.90;80.30;;;;;;5092749;28;20016;-72
2021/12/03 00:53:47;;;;;;;11.00;5.10;;;9.90;80.50;;;;;;5092949;28;20465;-73
2021/12/03 00:56:13;;;;;;;11.63;4.75;;;9.90;80.60;;;;;;5092538;28;20020;-69
2021/12/03 00:58:39;;;;;;;12.98;4.75;;;9.90;80.50;;;;;;5092922;28;20099;-73
2021/12/03 01:01:06;;;;;;;10.85;4.55;;;9.80;80.70;;;;;;5092872;28;20051;-73
2021/12/03 01:03:32;;;;;;;12.30;4.82;;;9.90;80.70;;;;;;5092867;28;20055;-69
2021/12/03 01:05:58;;;;;;;9.98;4.70;;;9.90;80.60;;;;;;5093366;28;20020;-73
2021/12/03 01:08:24;;;;;;;7.95;4.47;;;9.80;80.90;;;;;;5092373;28;20365;-73
2021/12/03 01:10:49;;;;;;;11.07;4.97;;;9.90;80.90;;;;;;5095954;28;20369;-73
2021/12/03 01:13:16;;;;;;;10.02;5.10;;;9.80;80.80;;;;;;5096166;28;20561;-71
2021/12/03 01:15:42;;;;;;;9.07;4.35;;;9.80;80.70;;;;;;5095975;28;20488;-73
2021/12/03 01:18:09;;;;;;;10.23;4.60;;;9.80;80.60;;;;;;5096274;28;20107;-73
2021/12/03 01:20:36;;;;;;;10.32;4.35;;;9.80;80.50;;;;;;5096362;28;20095;-73
2021/12/03 01:23:04;;;;;;;11.52;4.97;;;9.80;80.90;;;;;;5095928;28;20036;-73
2021/12/03 01:25:31;;;;;;;8.45;3.75;;;9.70;80.90;;;;;;5095990;28;20016;-71
2021/12/03 01:27:59;;;;;;;13.63;4.20;;;9.70;81.00;;;;;;5096178;28;20031;-73
2021/12/03 01:30:26;;;;;;;7.40;3.60;;;9.70;81.20;;;;;;5095787;28;20024;-70
2021/12/03 01:32:52;;;;;;;10.52;3.88;;;9.70;81.40;;;;;;5095793;28;20115;-73
2021/12/03 01:35:19;;;;;;;9.02;3.95;;;9.70;81.50;;;;;;5094571;28;20020;-73
2021/12/03 01:37:45;;;;;;;11.73;4.18;;;9.70;81.70;;;;;;5095869;28;20073;-73
2021/12/03 01:40:14;;;;;;;10.80;3.80;;;9.70;82.00;;;;;;5096167;28;20028;-73
2021/12/03 01:42:44;;;;;;;9.13;4.40;;;9.70;81.90;;;;;;5095753;28;20093;-72
2021/12/03 01:45:10;;;;;;;11.70;4.25;;;9.70;82.10;;;;;;5095222;28;20457;-73
2021/12/03 01:47:36;;;;;;;10.02;4.03;;;9.60;82.10;;;;;;5095469;28;20028;-71
2021/12/03 01:50:03;;;;;;;13.23;4.22;;;9.60;82.10;;;;;;5095625;28;20033;-72
2021/12/03 01:52:29;;;;;;;10.35;3.65;;;9.60;82.20;;;;;;5095458;28;20032;-73
2021/12/03 01:54:56;;;;;;;13.35;4.10;;;9.60;82.40;;;;;;5095490;28;20020;-73
2021/12/03 01:57:22;;;;;;;12.18;3.78;;;9.70;82.60;;;;;;5094007;28;20419;-72
2021/12/03 01:59:47;;;;;;;9.65;4.03;;;9.60;82.60;;;;;;5095112;28;20042;-72
2021/12/03 02:02:13;;;;;;;13.32;4.15;;;9.60;82.70;;;;;;5095320;28;20028;-73
2021/12/03 02:04:39;;;;;;;12.32;4.13;;;9.50;82.80;;;;;;5095120;28;20445;-73
2021/12/03 02:07:05;;;;;;;15.43;4.47;;;9.50;82.80;;;;;;5095288;28;20476;-73
2021/12/03 02:09:30;;;;;;;11.05;3.95;;;9.50;82.80;;;;;;5095315;28;20476;-72
2021/12/03 02:11:56;;;;;;;12.63;4.60;;;9.50;82.80;;;;;;5095028;28;20110;-60
2021/12/03 02:14:21;;;;;;;11.85;5.30;;;9.50;82.90;;;;;;5093431;28;20020;-71
2021/12/03 02:16:47;;;;;;;16.27;4.97;;;9.50;82.80;;;;;;5095126;28;20522;-71
2021/12/03 02:19:13;;;;;;;14.13;5.05;;;9.50;82.90;;;;;;5094936;28;20027;-68
2021/12/03 02:21:39;;;;;;;13.45;4.38;;;9.50;82.70;;;;;;5094888;28;20028;-73
2021/12/03 02:24:05;;;;;;;17.80;4.40;;;9.50;82.80;;;;;;5094797;28;20157;-72
2021/12/03 02:26:30;;;;;;;16.58;5.30;;;9.50;82.60;;;;;;5095018;28;20023;-70
2021/12/03 02:28:56;;;;;;;13.10;4.70;;;9.40;82.80;;;;;;5094445;28;20026;-72
2021/12/03 02:31:24;;;;;;;16.00;5.43;;;9.40;82.80;;;;;;5094777;28;20497;-69
2021/12/03 02:33:49;;;;;;;16.33;5.20;;;9.40;82.70;;;;;;5094712;28;20135;-72
2021/12/03 02:36:17;;;;;;;13.43;4.68;;;9.40;82.80;;;;;;5094720;28;20055;-73
2021/12/03 02:38:43;;;;;;;14.10;4.38;;;9.40;83.00;;;;;;5094490;28;20431;-69
2021/12/03 02:41:09;;;;;;;14.05;4.60;;;9.40;82.80;;;;;;5094468;28;20063;-71
2021/12/03 02:43:35;;;;;;;10.75;4.28;;;9.40;83.00;;;;;;5094094;28;20038;-73
2021/12/03 02:46:01;;;;;;;13.73;4.50;;;9.30;83.00;;;;;;5094489;28;20469;-73
2021/12/03 02:48:27;;;;;;;12.20;4.35;;;9.40;83.20;;;;;;5094327;28;20027;-72
2021/12/03 02:50:55;;;;;;;12.15;4.18;;;9.40;83.00;;;;;;5094366;28;20016;-73
2021/12/03 02:53:21;;;;;;;15.45;4.60;;;9.40;83.30;;;;;;5094257;28;20028;-72
2021/12/03 02:55:46;;;;;;;20.65;5.18;;;9.30;83.20;;;;;;5094455;28;20022;-72
2021/12/03 02:58:12;;;;;;;12.35;5.20;;;9.30;83.20;;;;;;5093898;28;20032;-72
2021/12/03 03:00:40;;;;;;;19.10;4.78;;;9.30;82.80;;;;;;5094261;28;20017;-65
2021/12/03 03:03:06;;;;;;;13.07;4.25;;;9.40;82.70;;;;;;5094086;28;20043;-71
2021/12/03 03:05:32;;;;;;;17.00;4.85;;;9.30;82.90;;;;;;5094004;28;20024;-73
2021/12/03 03:07:57;;;;;;;13.85;4.50;;;9.30;82.60;;;;;;5094076;28;20553;-72
2021/12/03 03:10:28;;;;;;;15.95;4.60;;;9.30;82.60;;;;;;5094162;28;20024;-72
2021/12/03 03:12:54;;;;;;;13.70;5.25;;;9.30;82.80;;;;;;5093733;28;20066;-72
2021/12/03 03:15:20;;;;;;;15.18;5.07;;;9.30;82.60;;;;;;5093870;28;20028;-73
2021/12/03 03:17:46;;;;;;;15.95;4.95;;;9.40;82.20;;;;;;5093835;28;20031;-71
2021/12/03 03:20:14;;;;;;;18.58;4.40;;;9.30;82.50;;;;;;5093831;28;20411;-63
2021/12/03 03:22:41;;;;;;;13.23;4.72;;;9.30;82.20;;;;;;5093874;28;20190;-61
2021/12/03 03:25:11;;;;;;;13.95;4.40;;;9.30;82.10;;;;;;5093824;28;20024;-62
2021/12/03 03:27:37;;;;;;;11.38;4.30;;;9.30;82.10;;;;;;5093661;28;20024;-71
2021/12/03 03:30:08;;;;;;;14.13;4.45;;;9.20;82.00;;;;;;5093514;28;20036;-60
2021/12/03 03:32:33;;;;;;;11.32;4.60;;;9.20;81.90;;;;;;5093327;28;20020;-63
2021/12/03 03:34:59;;;;;;;19.75;4.93;;;9.20;82.10;;;;;;5093506;28;20046;-72
2021/12/03 03:37:24;;;;;;;15.07;4.28;;;9.20;82.20;;;;;;5093605;28;20422;-68
2021/12/03 03:39:50;;;;;;;16.15;4.53;;;9.10;82.20;;;;;;5093179;28;20026;-69
2021/12/03 03:42:16;;;;;;;13.60;4.93;;;9.20;82.10;;;;;;5093376;28;20043;-67
2021/12/03 03:44:42;;;;;;;13.25;4.05;;;9.20;81.90;;;;;;5093367;28;20051;-65
2021/12/03 03:47:08;;;;;;;14.27;4.07;;;9.10;81.90;;;;;;5093497;28;20031;-66
2021/12/03 03:49:34;;;;;;;13.88;4.82;;;9.10;81.90;;;;;;5093447;28;20028;-63
2021/12/03 03:52:00;;;;;;;14.70;4.30;;;9.20;81.50;;;;;;5093421;28;20034;-72
2021/12/03 03:54:26;;;;;;;10.93;4.45;;;9.20;81.60;;;;;;5093171;28;20484;-72
2021/12/03 03:56:52;;;;;;;15.80;5.15;;;9.10;81.50;;;;;;5093121;28;20036;-72
2021/12/03 03:59:18;;;;;;;15.05;4.20;;;9.10;81.40;;;;;;5090913;28;20505;-71
2021/12/03 04:01:48;;;;;;;13.93;4.47;;;9.10;81.40;;;;;;5075142;28;20017;-73
2021/12/03 04:04:15;;;;;;;23.33;5.55;;;9.10;81.10;;;;;;5072607;28;20103;-72
2021/12/03 04:06:41;;;;;;;11.98;4.40;;;9.10;81.00;;;;;;5072561;28;20078;-72
2021/12/03 04:09:08;;;;;;;11.88;3.90;;;9.10;80.90;;;;;;5072870;28;20024;-73
2021/12/03 04:11:34;;;;;;;14.18;4.13;;;9.00;81.00;;;;;;5071541;28;20027;-67
2021/12/03 04:14:00;;;;;;;13.18;4.03;;;9.00;80.90;;;;;;5073079;28;20028;-73
2021/12/03 04:16:26;;;;;;;18.33;4.85;;;9.00;80.90;;;;;;5071828;28;20017;-71
2021/12/03 04:18:53;;;;;;;12.57;3.80;;;9.00;80.70;;;;;;5072957;28;20073;-72
2021/12/03 04:21:18;;;;;;;17.55;4.25;;;9.00;80.70;;;;;;5073279;28;20016;-73
2021/12/03 04:23:44;;;;;;;11.73;3.13;;;9.00;80.70;;;;;;5072856;28;20039;-71
2021/12/03 04:26:09;;;;;;;12.15;4.53;;;9.20;80.10;;;;;;5072752;28;20362;-72
2021/12/03 04:28:35;;;;;;;18.15;4.43;;;9.30;78.30;;;;;;5072927;28;20465;-63
2021/12/03 04:31:01;;;;;;;10.50;3.95;;;9.40;77.60;;;;;;5072770;28;20035;-72
2021/12/03 04:33:27;;;;;;;14.38;4.10;;;9.30;77.70;;;;;;5071486;28;20078;-70
2021/12/03 04:35:52;;;;;;;19.98;4.07;;;9.30;77.70;;;;;;5072851;28;20025;-72
2021/12/03 04:38:18;;;;;;;12.48;3.80;;;9.20;77.60;;;;;;5072513;28;20103;-71
2021/12/03 04:40:44;;;;;;;14.13;3.75;;;9.20;77.80;;;;;;5072769;28;20485;-74
2021/12/03 04:43:11;;;;;;;13.85;4.18;;;9.20;78.20;;;;;;5072909;28;20448;-72
2021/12/03 04:45:37;;;;;;;12.52;4.30;;;9.10;78.60;;;;;;5075545;28;20036;-72
2021/12/03 04:48:04;;;;;;;13.60;4.10;;;9.10;78.30;;;;;;5076747;28;20082;-71
2021/12/03 04:50:36;;;;;;;13.57;4.20;;;9.10;78.30;;;;;;5076621;28;20058;-72
2021/12/03 04:53:03;;;;;;;12.50;4.28;;;9.10;78.60;;;;;;5076138;28;20480;-72
2021/12/03 04:55:29;;;;;;;12.65;3.90;;;9.10;78.50;;;;;;5076485;28;20017;-72
2021/12/03 04:57:54;;;;;;;13.63;4.22;;;9.10;78.60;;;;;;5076258;28;20029;-73
2021/12/03 05:00:24;;;;;;;18.30;4.65;;;9.10;78.60;;;;;;5077001;28;20078;-65
2021/12/03 05:02:51;;;;;;;14.27;4.80;;;9.10;78.70;;;;;;5076125;28;20130;-72
2021/12/03 05:05:17;;;;;;;13.10;4.13;;;9.00;78.40;;;;;;5076450;28;20028;-72
2021/12/03 05:07:57;;;;;;;12.75;5.07;;;9.10;78.70;;;;;;5075739;28;20032;-71
2021/12/03 05:10:23;;;;;;;16.02;4.80;;;9.00;78.90;;;;;;5076321;28;20052;-71
2021/12/03 05:12:50;;;;;;;15.05;4.25;;;9.00;79.10;;;;;;5075885;28;20039;-59
2021/12/03 05:15:15;;;;;;;11.55;4.53;;;9.00;79.30;;;;;;5075963;28;20490;-72
2021/12/03 05:17:41;;;;;;;14.27;4.05;;;8.90;79.20;;;;;;5075846;28;20113;-70
2021/12/03 05:20:07;;;;;;;13.45;5.10;;;8.90;79.00;;;;;;5075976;28;20020;-69
2021/12/03 05:22:33;;;;;;;13.73;4.18;;;9.00;79.00;;;;;;5075444;28;20020;-70
2021/12/03 05:24:58;;;;;;;15.75;5.03;;;8.90;79.10;;;;;;5074563;28;20035;-70
2021/12/03 05:27:24;;;;;;;15.88;4.68;;;8.90;79.40;;;;;;5075763;28;20437;-69
2021/12/03 05:29:49;;;;;;;18.20;5.18;;;8.90;79.60;;;;;;5075899;28;20033;-70
2021/12/03 05:32:18;;;;;;;15.45;4.45;;;8.80;79.60;;;;;;5075676;28;20021;-63
2021/12/03 05:34:43;;;;;;;14.25;4.43;;;8.80;79.50;;;;;;5075611;28;20016;-71
2021/12/03 05:37:09;;;;;;;14.82;4.63;;;8.80;79.70;;;;;;5075270;28;20039;-72
2021/12/03 05:39:36;;;;;;;17.02;4.30;;;8.70;80.10;;;;;;5075606;28;20100;-72
2021/12/03 05:42:03;;;;;;;11.23;3.65;;;8.80;80.10;;;;;;5074135;28;20409;-59
2021/12/03 05:44:30;;;;;;;15.10;3.70;;;8.70;80.00;;;;;;5075476;28;20480;-67
2021/12/03 05:46:57;;;;;;;13.85;4.57;;;8.70;80.80;;;;;;5075436;28;20028;-59
2021/12/03 05:49:23;;;;;;;12.88;4.10;;;8.70;80.00;;;;;;5075382;28;20389;-61
2021/12/03 05:51:48;;;;;;;15.68;4.72;;;8.70;79.80;;;;;;5073735;28;20469;-72
2021/12/03 05:54:14;;;;;;;11.43;4.00;;;8.70;80.10;;;;;;5075336;28;20378;-59
2021/12/03 05:56:39;;;;;;;15.45;4.55;;;8.70;80.20;;;;;;5075079;28;20107;-71
2021/12/03 05:59:05;;;;;;;13.73;4.35;;;8.70;80.20;;;;;;5074965;28;20027;-60
2021/12/03 06:01:30;;;;;;;14.20;4.00;;;8.70;80.50;;;;;;5075349;28;20024;-63
2021/12/03 06:03:56;;;;;;;14.80;3.83;;;8.70;80.30;;;;;;5075056;28;20452;-59
2021/12/03 06:06:22;;;;;;;16.75;4.55;;;8.70;80.70;;;;;;5074307;28;20031;-61
2021/12/03 06:08:48;;;;;;;13.40;4.70;;;8.70;80.70;;;;;;5074996;28;20024;-62
2021/12/03 06:11:13;;;;;;;14.07;3.63;;;8.70;80.90;;;;;;5075128;28;20052;-71
2021/12/03 06:13:39;;;;;;;9.73;3.80;;;8.70;80.30;;;;;;5074779;28;20040;-74
2021/12/03 06:16:10;;;;;;;14.73;3.70;;;8.70;80.20;;;;;;5075080;28;20020;-73
2021/12/03 06:18:37;;;;;;;10.68;3.53;;;8.70;80.30;;;;;;5074730;28;20021;-73
2021/12/03 06:21:05;;;;;;;16.42;3.83;;;8.70;80.00;;;;;;5075049;28;20028;-73
2021/12/03 06:23:31;;;;;;;14.93;4.35;;;8.70;80.30;;;;;;5074593;28;20504;-72
2021/12/03 06:25:58;;;;;;;14.13;4.53;;;8.70;80.50;;;;;;5074443;28;20028;-71
2021/12/03 06:28:25;;;;;;;17.65;4.47;;;8.70;80.60;;;;;;5086764;28;20111;-66
2021/12/03 06:30:51;;;;;;;12.48;4.28;;;8.60;80.60;;;;;;5073382;28;20021;-60
2021/12/03 06:33:19;;;;;;;14.02;4.80;;;8.60;80.70;;;;;;5083768;28;20023;-70
2021/12/03 06:35:45;;;;;;;11.27;4.30;;;8.60;81.10;;;;;;5076336;28;20324;-65
2021/12/03 06:38:11;;;;;;;13.27;5.10;;;8.60;81.20;;;;;;5082998;28;20130;-72
2021/12/03 06:40:37;;;;;;;13.25;5.05;;;8.50;81.40;;;;;;5090457;28;20024;-70
2021/12/03 06:43:02;;;;;;;17.08;6.00;;;8.60;81.40;;;;;;5081196;28;20176;-73
2021/12/03 06:45:28;;;;;;;16.80;5.55;;;8.60;81.50;;;;;;5087200;28;20058;-65
2021/12/03 06:47:54;;;;;;;15.90;4.88;;;8.60;81.90;;;;;;5090749;28;20032;-64
2021/12/03 06:50:20;;;;;;;10.45;4.30;;;8.60;82.50;;;;;;5096762;28;20025;-61
2021/12/03 06:52:52;;;;;;;16.52;5.75;;;8.70;82.60;;;;;;5091453;28;20028;-70
2021/12/03 06:55:18;;;;;;;18.30;6.30;;;8.70;82.40;;;;;;5095031;28;20087;-72
2021/12/03 06:57:44;;;;;;;17.80;5.75;;;8.70;82.10;;;;;;5108148;28;20491;-70
2021/12/03 07:00:14;;;;;;;19.52;6.05;;;8.80;82.60;;;;;;5090911;28;20024;-61
2021/12/03 07:02:40;;;;;;;16.38;5.78;;;8.80;83.40;;;;;;5093678;28;20043;-66
2021/12/03 07:05:07;;;;;;;18.55;5.88;;;8.90;83.00;;;;;;5093602;28;20468;-62
2021/12/03 07:07:33;;;;;;;18.70;5.70;;;8.80;82.50;;;;;;5085639;28;20024;-71
2021/12/03 07:10:00;;;;;;;16.67;5.60;;;8.90;83.40;;;;;;5084209;28;20385;-72
2021/12/03 07:12:26;;;;;;;16.45;5.22;;;9.00;83.30;;;;;;5096904;28;20035;-65
2021/12/03 07:14:52;;;;;;;17.08;4.80;;;9.00;83.40;;;;;;5096399;28;20557;-64
2021/12/03 07:17:18;;;;;;;23.75;5.82;;;8.90;82.60;;;;;;5076765;28;20020;-70
2021/12/03 07:19:44;;;;;;;22.15;4.43;;;9.00;82.70;;;;;;5085530;28;20114;-68
2021/12/03 07:22:10;;;;;;;14.50;5.57;;;9.10;83.80;;;;;;5083297;28;20127;-72
2021/12/03 07:24:36;;;;;;;17.50;5.78;;;9.10;84.00;;;;;;5086634;28;20082;-73
2021/12/03 07:27:01;;;;;;;17.23;3.75;;;9.10;83.60;;;;;;5082315;28;20020;-72
2021/12/03 07:29:28;;;;;;;15.98;4.30;;;9.20;84.40;;;;;;5093709;28;20031;-68
2021/12/03 07:31:54;;;;;;;18.35;4.32;;;9.10;84.20;;;;;;5077157;28;20035;-64
2021/12/03 07:34:20;;;;;;;12.85;4.50;;;9.20;84.30;;;;;;5073195;28;20095;-67
2021/12/03 07:36:46;;;;;;;19.08;4.40;;;9.20;83.70;;;;;;5072580;28;20495;-68
2021/12/03 07:39:11;;;;;;;14.23;3.47;;;9.30;85.20;;;;;;5083167;28;20099;-61
2021/12/03 07:41:40;;;;;;;12.88;4.03;;;9.30;85.60;;;;;;5091605;28;20032;-64
2021/12/03 07:44:09;;;;;;;13.45;3.85;;;9.40;85.60;;;;;;5076788;28;20040;-61
2021/12/03 07:46:35;;;;;;;13.15;3.85;;;9.50;86.20;;;;;;5072406;28;20028;-62
2021/12/03 07:49:02;;;;;;;10.88;3.45;;;9.50;86.40;;;;;;5104637;28;20031;-63
2021/12/03 07:51:28;;;;;;;15.43;5.32;;;9.50;86.10;;;;;;5092593;28;20028;-64
2021/12/03 07:53:53;;;;;;;18.60;5.95;;;9.50;85.30;;;;;;5093113;28;20380;-71
2021/12/03 07:56:19;;;;;;;9.23;3.42;;;9.50;84.60;;;;;;5092609;28;20110;-70
2021/12/03 07:58:45;;;;;;;15.73;4.55;;;9.50;85.70;;;;;;5092754;28;20469;-72
2021/12/03 08:01:10;;;;;;;18.08;4.50;;;9.50;83.40;;;;;;5089806;28;20492;-69
2021/12/03 08:03:36;;;;;;;13.77;4.13;;;9.50;83.80;;;;;;5090306;28;20063;-67
2021/12/03 08:06:08;;;;;;;20.70;4.93;;;9.60;84.90;;;;;;5089993;28;20024;-71
2021/12/03 08:08:36;;;;;;;18.92;4.50;;;9.60;82.40;;;;;;5076822;28;20029;-60
2021/12/03 08:11:02;;;;;;;14.38;4.65;;;9.60;80.60;;;;;;5090207;28;20157;-68
2021/12/03 08:13:28;;;;;;;16.05;4.85;;;9.50;83.10;;;;;;5090807;28;20114;-70
2021/12/03 08:15:53;;;;;;;13.70;4.55;;;9.50;83.40;;;;;;5088839;28;20024;-71
2021/12/03 08:18:20;;;;;;;13.18;3.97;;;9.40;82.40;;;;;;5092817;28;20016;-71
2021/12/03 08:20:45;;;;;;;13.88;4.22;;;9.50;83.50;;;;;;5092414;28;20555;-72
2021/12/03 08:23:12;;;;;;;14.27;5.43;;;9.50;83.80;;;;;;5076614;28;20123;-72
2021/12/03 08:25:38;;;;;;;13.85;4.53;;;9.50;83.30;;;;;;5077231;28;20021;-68
2021/12/03 08:28:04;;;;;;;13.32;3.38;;;9.60;84.20;;;;;;5076344;28;20036;-70
2021/12/03 08:30:30;;;;;;;12.70;4.18;;;9.70;84.60;;;;;;5076712;28;20020;-72
2021/12/03 08:32:57;;;;;;;12.85;3.63;;;9.70;84.60;;;;;;5085177;28;20574;-71
2021/12/03 08:35:23;;;;;;;12.40;3.45;;;9.70;84.50;;;;;;5092903;28;20082;-69
2021/12/03 08:37:50;;;;;;;12.75;3.63;;;9.80;85.50;;;;;;5087409;28;20028;-70
2021/12/03 08:40:17;;;;;;;11.68;3.60;;;9.90;85.60;;;;;;5092933;28;20052;-72
2021/12/03 08:42:42;;;;;;;16.15;4.03;;;10.00;85.50;;;;;;5078442;28;20087;-72
2021/12/03 08:45:09;;;;;;;11.80;3.67;;;10.10;85.80;;;;;;5094580;28;20047;-71
2021/12/03 08:47:36;;;;;;;11.13;3.00;;;10.10;85.20;;;;;;5095871;28;20093;-72
2021/12/03 08:50:07;;;;;;;11.40;3.55;;;10.30;85.20;;;;;;5080110;28;20055;-73
2021/12/03 08:55:10;;;;;;;15.63;4.07;;;10.40;84.80;;;;;;5079672;28;20039;-61
2021/12/03 08:57:36;;;;;;;13.05;3.83;;;10.40;84.20;;;;;;5075340;28;20028;-60
2021/12/03 09:00:12;;;;;;;10.82;3.22;;;10.40;83.20;;;;;;5078964;28;20478;-62
2021/12/03 09:02:42;;;;;;;17.02;4.40;;;10.30;83.10;;;;;;5093144;28;20071;-62
2021/12/03 09:05:09;;;;;;;14.00;4.40;;;10.20;81.80;;;;;;5095161;28;20070;-69
2021/12/03 09:07:36;;;;;;;13.43;4.20;;;10.10;82.00;;;;;;5095693;28;20119;-60
2021/12/03 09:10:06;;;;;;;10.20;3.47;;;10.10;82.70;;;;;;5080779;28;20044;-66
2021/12/03 09:12:32;;;;;;;12.68;4.03;;;10.10;83.40;;;;;;5095316;28;20460;-67
2021/12/03 09:15:02;;;;;;;13.55;4.00;;;10.10;83.30;;;;;;5090712;28;20491;-70
2021/12/03 09:22:47;;;;;;;11.70;4.18;;;10.10;82.80;;;;;;5092388;28;20135;-72
2021/12/03 09:25:17;;;;;;;11.70;4.53;;;10.10;81.30;;;;;;5095441;28;20016;-60
2021/12/03 09:27:43;;;;;;;14.38;4.95;;;10.00;81.60;;;;;;5094970;28;20035;-63
2021/12/03 09:30:14;;;;;;;9.38;4.20;;;9.90;81.10;;;;;;5094851;28;20012;-59
2021/12/03 09:32:41;;;;;;;10.75;4.28;;;9.90;81.00;;;;;;5093672;28;20021;-60
2021/12/03 09:35:09;;;;;;;13.65;4.68;;;9.80;81.60;;;;;;5094926;28;20027;-61
2021/12/03 09:37:34;;;;;;;12.10;4.53;;;9.80;81.30;;;;;;5095019;28;20440;-61
2021/12/03 09:40:05;;;;;;;16.13;4.90;;;9.70;81.60;;;;;;5095306;28;20052;-60
2021/12/03 09:42:35;;;;;;;10.10;4.07;;;9.80;81.90;;;;;;5091952;28;20028;-59
2021/12/03 09:45:03;;;;;;;13.15;4.53;;;9.70;82.00;;;;;;5090896;28;20047;-61
2021/12/03 09:47:28;;;;;;;8.20;3.38;;;9.70;82.40;;;;;;5095248;28;20016;-61
2021/12/03 09:49:56;;;;;;;9.30;3.97;;;9.80;82.70;;;;;;5095285;28;20024;-60
2021/12/03 09:52:32;;;;;;;10.63;5.07;;;9.80;82.80;;;;;;5094606;28;20029;-60
2021/12/03 09:55:01;;;;;;;7.57;3.65;;;9.90;81.70;;;;;;5094835;28;20372;-61
2021/12/03 09:57:36;;;;;;;10.20;3.97;;;9.80;81.60;;;;;;5089776;28;20028;-61
2021/12/03 10:16:17;;;;;;;7.30;2.90;;;10.60;83.50;;;;;;5078720;28;20366;-68
2021/12/03 10:18:53;;;;;;;10.93;3.15;;;10.80;83.50;;;;;;5074993;28;20028;-73
2021/12/03 10:49:43;;;;;;;7.00;3.15;;;11.40;77.80;;;;;;5094481;28;20432;-73
2021/12/03 10:52:23;;;;;;;7.28;3.03;;;11.40;77.80;;;;;;5091306;28;20447;-61
2021/12/03 10:58:12;;;;;;;9.10;2.45;;;11.30;78.10;;;;;;5066494;28;20075;-72
2021/12/03 11:04:13;;;;;;;5.88;2.58;;;11.50;83.80;;;;;;5090992;28;20521;-66
2021/12/03 11:53:51;;;;;;;9.88;3.03;;;11.30;79.80;;;;;;5073159;28;20114;-60
2021/12/03 13:06:49;;;;;;;6.35;1.92;;;11.40;82.80;;;;;;5092621;28;20067;-69
2021/12/03 13:34:14;;;;;;;2.30;2.00;;;11.30;83.50;;;;;;5085184;28;20093;-63
2021/12/03 13:58:41;;;;;;;2.35;1.20;;;11.80;84.90;;;;;;5089456;28;20043;-69
2021/12/03 14:12:08;;;;;;;2.35;1.20;;;12.00;83.30;;;;;;5085718;28;20139;-68
2021/12/03 14:54:36;;;;;;;2.22;1.02;;;12.10;83.20;;;;;;5089114;28;20046;-65
2021/12/03 14:57:20;;;;;;;2.95;2.38;;;12.10;83.00;;;;;;5076929;28;20111;-65
2021/12/03 15:00:00;;;;;;;2.60;2.03;;;12.10;81.10;;;;;;5074067;28;20495;-69
2021/12/03 15:02:39;;;;;;;2.38;1.38;;;11.90;81.00;;;;;;5073792;28;20036;-67
2021/12/03 15:05:21;;;;;;;2.92;1.50;;;11.80;82.80;;;;;;5073768;28;20486;-67
2021/12/03 15:07:52;;;;;;;1.80;1.05;;;11.90;83.50;;;;;;5074117;28;20089;-69
2021/12/03 15:10:27;;;;;;;3.65;0.95;;;11.90;83.30;;;;;;5089464;28;20027;-68
2021/12/03 15:13:10;;;;;;;2.00;1.38;;;11.90;83.80;;;;;;5074754;28;20444;-66
2021/12/03 15:16:24;;;;;;;2.40;0.98;;;12.00;83.20;;;;;;5093492;28;20020;-67
2021/12/03 15:26:59;;;;;;;4.13;1.98;;;11.80;81.40;;;;;;5080943;28;20301;-63
2021/12/03 15:34:49;;;;;;;4.03;1.52;;;12.10;83.30;;;;;;5081070;28;20700;-66
2021/12/03 15:37:40;;;;;;;4.93;1.55;;;12.30;82.30;;;;;;5079745;28;20028;-64
2021/12/03 16:04:39;;;;;;;4.00;2.40;;;12.00;84.10;;;;;;5085872;28;20059;-66
2021/12/03 16:12:34;;;;;;;1.98;1.10;;;12.10;85.20;;;;;;5069199;28;20390;-66
2021/12/03 16:25:53;;;;;;;1.55;1.10;;;12.20;84.80;;;;;;5082116;28;20032;-61
2021/12/03 16:47:31;;;;;;;3.40;1.13;;;12.20;85.20;;;;;;5075866;28;20536;-61
2021/12/03 16:50:23;;;;;;;1.75;1.40;;;12.30;85.40;;;;;;5087068;28;20031;-62
2021/12/03 16:52:46;;;;;;;1.33;0.80;;;12.30;84.90;;;;;;5089309;28;20044;-65
2021/12/03 16:55:12;;;;;;;3.97;1.88;;;12.30;85.10;;;;;;5085527;28;20020;-62
2021/12/03 16:57:39;;;;;;;2.10;0.93;;;12.30;84.10;;;;;;5086279;28;20373;-62
2021/12/03 17:21:54;;;;;;;2.75;0.90;;;12.50;84.40;;;;;;5095009;28;20031;-61
2021/12/03 17:27:35;;;;;;;5.93;1.95;;;12.60;84.00;;;;;;5080747;28;20040;-68
2021/12/03 17:30:06;;;;;;;5.28;1.80;;;12.60;84.50;;;;;;5086337;28;20047;-69
2021/12/03 17:49:01;;;;;;;12.20;3.88;;;12.50;84.30;;;;;;5092026;28;20165;-70
2021/12/03 17:51:45;;;;;;;6.32;2.92;;;12.50;84.60;;;;;;5081022;28;20027;-61
2021/12/03 17:56:43;;;;;;;11.18;3.42;;;12.30;82.70;;;;;;5081868;28;20056;-69
2021/12/03 17:59:17;;;;;;;10.23;3.67;;;12.50;86.40;;;;;;5081362;28;20021;-70
2021/12/03 18:04:40;;;;;;;6.50;2.78;;;12.70;86.70;;;;;;5091415;27;20055;-68
2021/12/03 18:07:23;;;;;;;12.85;3.15;;;12.70;86.00;;;;;;5082008;28;20802;-69
2021/12/03 18:13:00;;;;;;;7.18;3.35;;;12.90;86.30;;;;;;5077681;28;20088;-69
2021/12/03 18:53:44;;;;;;;3.60;2.05;;;12.40;85.60;;;;;;5079487;28;20279;-66
2021/12/03 18:56:29;;;;;;;2.72;2.47;;;12.40;85.60;;;;;;5076956;28;20027;-65
2021/12/03 18:59:02;;;;;;;2.28;2.08;;;12.40;84.90;;;;;;5073741;28;21470;-64
2021/12/03 19:01:29;;;;;;;3.72;1.80;;;12.40;85.30;;;;;;5073457;28;20416;-68
2021/12/03 19:06:26;;;;;;;5.82;4.00;;;12.40;84.60;;;;;;5088316;28;20115;-69
2021/12/03 19:08:55;;;;;;;4.85;2.22;;;12.30;83.60;;;;;;5076485;28;20036;-65
2021/12/03 19:11:25;;;;;;;2.95;2.42;;;12.40;85.60;;;;;;5078377;28;20020;-60
2021/12/03 19:13:52;;;;;;;5.03;2.10;;;12.30;84.70;;;;;;5081711;28;20040;-59
2021/12/03 19:16:22;;;;;;;3.20;2.17;;;12.40;85.50;;;;;;5083520;28;20037;-66
2021/12/03 19:18:50;;;;;;;3.30;2.97;;;12.40;86.60;;;;;;5076467;28;20020;-62
2021/12/03 19:21:23;;;;;;;10.32;7.03;;;12.40;84.60;;;;;;5075650;28;20020;-64
2021/12/03 19:23:58;;;;;;;4.47;3.10;;;12.40;83.90;;;;;;5080229;28;20046;-69
2021/12/03 19:26:25;;;;;;;2.72;2.33;;;12.30;84.20;;;;;;5084606;28;20031;-62
2021/12/03 19:28:51;;;;;;;2.72;2.28;;;12.30;84.50;;;;;;5080224;28;20028;-71
2021/12/03 19:31:21;;;;;;;3.25;1.60;;;12.20;84.40;;;;;;5086646;28;20032;-61
2021/12/03 19:33:46;;;;;;;3.17;2.85;;;12.40;86.70;;;;;;5077182;28;20116;-64
2021/12/03 19:36:16;;;;;;;4.93;3.25;;;12.40;84.70;;;;;;5077472;28;20127;-67
2021/12/03 19:38:41;;;;;;;3.58;3.10;;;12.30;82.50;;;;;;5072870;28;20512;-67
2021/12/03 19:41:15;;;;;;;2.50;2.30;;;12.30;82.80;;;;;;5083890;28;20024;-61
2021/12/03 19:43:46;;;;;;;6.05;2.08;;;12.20;84.30;;;;;;5085943;28;20087;-68
2021/12/03 19:46:18;;;;;;;3.37;2.40;;;12.30;86.10;;;;;;5092586;28;20067;-70
2021/12/03 19:49:01;;;;;;;2.47;2.15;;;12.30;85.90;;;;;;5092977;28;20035;-67
2021/12/03 19:51:28;;;;;;;4.97;1.58;;;12.30;85.20;;;;;;5087197;28;20028;-64
2021/12/03 19:56:23;;;;;;;2.53;1.95;;;12.50;85.90;;;;;;5079025;28;20039;-69
2021/12/03 19:58:49;;;;;;;2.90;2.40;;;12.60;86.40;;;;;;5080030;28;20135;-61
2021/12/03 20:01:15;;;;;;;3.03;2.50;;;12.60;85.20;;;;;;5082125;28;20042;-60
2021/12/03 20:03:40;;;;;;;3.30;3.00;;;12.60;84.00;;;;;;5077138;28;20058;-61
2021/12/03 20:06:06;;;;;;;3.47;3.17;;;12.50;83.60;;;;;;5078453;28;20024;-60
2021/12/03 20:08:34;;;;;;;4.45;3.22;;;12.40;82.50;;;;;;5084918;28;20160;-61